sensor_id;sensor_type;location;lat;lon;timestamp;pressure;altitude;pressure_sealevel;temperature;humidity
40612;BME280;26317;44.894;20.286;2022-08-21T00:02:20;100086.44;;;22.40;98.52
40612;BME280;26317;44.894;20.286;2022-08-21T00:04:50;100093.47;;;22.22;98.69
40612;BME280;26317;44.894;20.286;2022-08-21T00:07:19;100090.88;;;22.10;98.62
40612;BME280;26317;44.894;20.286;2022-08-21T00:09:49;100089.13;;;22.01;99.43
40612;BME280;26317;44.894;20.286;2022-08-21T00:12:18;100073.66;;;21.90;100.00
40612;BME280;26317;44.894;20.286;2022-08-21T00:14:50;100080.19;;;21.85;100.00
40612;BME280;26317;44.894;20.286;2022-08-21T00:17:18;100089.09;;;21.82;100.00
40612;BME280;26317;44.894;20.286;2022-08-21T00:19:48;100090.25;;;21.81;100.00
40612;BME280;26317;44.894;20.286;2022-08-21T00:22:17;100096.84;;;21.80;100.00
40612;BME280;26317;44.894;20.286;2022-08-21T00:24:46;100086.75;;;21.65;100.00
40612;BME280;26317;44.894;20.286;2022-08-21T00:27:15;100094.31;;;21.72;100.00
40612;BME280;26317;44.894;20.286;2022-08-21T00:29:44;100101.00;;;21.74;100.00
40612;BME280;26317;44.894;20.286;2022-08-21T00:32:19;100103.03;;;21.77;100.00
40612;BME280;26317;44.894;20.286;2022-08-21T00:34:48;100095.91;;;21.73;100.00
40612;BME280;26317;44.894;20.286;2022-08-21T00:37:17;100109.66;;;21.61;100.00
40612;BME280;26317;44.894;20.286;2022-08-21T00:39:49;100067.78;;;21.22;100.00
40612;BME280;26317;44.894;20.286;2022-08-21T00:42:18;100092.69;;;21.36;100.00
40612;BME280;26317;44.894;20.286;2022-08-21T00:44:48;100104.34;;;21.05;100.00
40612;BME280;26317;44.894;20.286;2022-08-21T00:47:20;100080.22;;;20.76;100.00
40612;BME280;26317;44.894;20.286;2022-08-21T00:49:49;100070.00;;;20.57;100.00
40612;BME280;26317;44.894;20.286;2022-08-21T00:52:25;100090.88;;;20.65;100.00
40612;BME280;26317;44.894;20.286;2022-08-21T00:54:58;100099.38;;;20.63;100.00
40612;BME280;26317;44.894;20.286;2022-08-21T00:57:34;100101.56;;;20.58;97.58
40612;BME280;26317;44.894;20.286;2022-08-21T01:00:10;100104.56;;;20.53;97.48
40612;BME280;26317;44.894;20.286;2022-08-21T01:02:45;100104.47;;;20.49;97.29
40612;BME280;26317;44.894;20.286;2022-08-21T01:05:14;100106.53;;;20.40;97.97
40612;BME280;26317;44.894;20.286;2022-08-21T01:07:43;100101.09;;;20.28;98.50
40612;BME280;26317;44.894;20.286;2022-08-21T01:10:13;100096.00;;;20.27;100.00
40612;BME280;26317;44.894;20.286;2022-08-21T01:12:42;100099.63;;;20.31;100.00
40612;BME280;26317;44.894;20.286;2022-08-21T01:15:13;100088.75;;;20.31;100.00
40612;BME280;26317;44.894;20.286;2022-08-21T01:17:48;100104.59;;;20.41;100.00
40612;BME280;26317;44.894;20.286;2022-08-21T01:20:18;100106.81;;;20.51;100.00
40612;BME280;26317;44.894;20.286;2022-08-21T01:22:49;100114.41;;;20.57;100.00
40612;BME280;26317;44.894;20.286;2022-08-21T01:25:18;100124.28;;;20.62;99.15
40612;BME280;26317;44.894;20.286;2022-08-21T01:27:48;100094.03;;;20.39;99.26
40612;BME280;26317;44.894;20.286;2022-08-21T01:30:21;100110.47;;;20.43;99.00
40612;BME280;26317;44.894;20.286;2022-08-21T01:32:51;100103.94;;;20.32;100.00
40612;BME280;26317;44.894;20.286;2022-08-21T01:35:21;100109.28;;;20.28;99.34
40612;BME280;26317;44.894;20.286;2022-08-21T01:37:53;100104.66;;;20.04;99.59
40612;BME280;26317;44.894;20.286;2022-08-21T01:40:22;100086.47;;;19.81;100.00
40612;BME280;26317;44.894;20.286;2022-08-21T01:42:53;100078.41;;;19.84;100.00
40612;BME280;26317;44.894;20.286;2022-08-21T01:45:22;100089.75;;;19.86;100.00
40612;BME280;26317;44.894;20.286;2022-08-21T01:47:51;100098.41;;;20.04;100.00
40612;BME280;26317;44.894;20.286;2022-08-21T01:50:21;100091.38;;;20.15;100.00
40612;BME280;26317;44.894;20.286;2022-08-21T01:52:56;100089.44;;;20.15;100.00
40612;BME280;26317;44.894;20.286;2022-08-21T01:55:25;100051.06;;;19.81;100.00
40612;BME280;26317;44.894;20.286;2022-08-21T01:57:54;100084.81;;;20.04;100.00
40612;BME280;26317;44.894;20.286;2022-08-21T02:00:23;100094.81;;;20.12;100.00
40612;BME280;26317;44.894;20.286;2022-08-21T02:06:38;100108.59;;;20.31;100.00
40612;BME280;26317;44.894;20.286;2022-08-21T02:09:23;100099.28;;;20.32;100.00
40612;BME280;26317;44.894;20.286;2022-08-21T02:12:08;100056.72;;;19.88;100.00
40612;BME280;26317;44.894;20.286;2022-08-21T02:14:46;100083.38;;;19.94;100.00
40612;BME280;26317;44.894;20.286;2022-08-21T02:17:16;100062.31;;;19.67;100.00
40612;BME280;26317;44.894;20.286;2022-08-21T02:19:54;100057.16;;;19.62;100.00
40612;BME280;26317;44.894;20.286;2022-08-21T02:22:28;100055.88;;;19.59;100.00
40612;BME280;26317;44.894;20.286;2022-08-21T02:25:11;100055.09;;;19.59;100.00
40612;BME280;26317;44.894;20.286;2022-08-21T02:27:44;100047.38;;;19.61;100.00
40612;BME280;26317;44.894;20.286;2022-08-21T02:30:22;100041.25;;;19.64;100.00
40612;BME280;26317;44.894;20.286;2022-08-21T02:32:54;100042.38;;;19.63;100.00
40612;BME280;26317;44.894;20.286;2022-08-21T02:35:24;100041.34;;;19.67;100.00
40612;BME280;26317;44.894;20.286;2022-08-21T02:37:56;100041.13;;;19.72;100.00
40612;BME280;26317;44.894;20.286;2022-08-21T02:40:43;100032.63;;;19.74;100.00
40612;BME280;26317;44.894;20.286;2022-08-21T02:43:17;100045.97;;;19.79;100.00
40612;BME280;26317;44.894;20.286;2022-08-21T02:45:52;100048.13;;;19.86;100.00
40612;BME280;26317;44.894;20.286;2022-08-21T02:48:31;100045.03;;;19.87;100.00
40612;BME280;26317;44.894;20.286;2022-08-21T02:51:15;100041.88;;;19.85;100.00
40612;BME280;26317;44.894;20.286;2022-08-21T02:53:47;100041.41;;;19.95;100.00
40612;BME280;26317;44.894;20.286;2022-08-21T02:56:22;100034.38;;;19.94;100.00
40612;BME280;26317;44.894;20.286;2022-08-21T02:58:56;100042.50;;;20.06;100.00
40612;BME280;26317;44.894;20.286;2022-08-21T03:01:37;100032.75;;;20.05;100.00
40612;BME280;26317;44.894;20.286;2022-08-21T03:04:18;100025.28;;;20.02;100.00
40612;BME280;26317;44.894;20.286;2022-08-21T03:06:50;100018.47;;;19.96;100.00
40612;BME280;26317;44.894;20.286;2022-08-21T03:09:19;100039.44;;;20.08;100.00
40612;BME280;26317;44.894;20.286;2022-08-21T03:12:02;100027.16;;;20.14;100.00
40612;BME280;26317;44.894;20.286;2022-08-21T03:14:33;100029.28;;;20.20;100.00
40612;BME280;26317;44.894;20.286;2022-08-21T03:17:06;100043.91;;;20.28;100.00
40612;BME280;26317;44.894;20.286;2022-08-21T03:19:35;100043.31;;;20.35;100.00
40612;BME280;26317;44.894;20.286;2022-08-21T03:22:19;100046.94;;;20.39;100.00
40612;BME280;26317;44.894;20.286;2022-08-21T03:24:50;100048.28;;;20.45;100.00
40612;BME280;26317;44.894;20.286;2022-08-21T03:27:26;100048.00;;;20.50;100.00
40612;BME280;26317;44.894;20.286;2022-08-21T03:30:02;100060.25;;;20.56;100.00
40612;BME280;26317;44.894;20.286;2022-08-21T03:32:31;100044.59;;;20.53;100.00
40612;BME280;26317;44.894;20.286;2022-08-21T03:35:08;100049.91;;;20.61;100.00
40612;BME280;26317;44.894;20.286;2022-08-21T03:37:43;100051.19;;;20.67;100.00
40612;BME280;26317;44.894;20.286;2022-08-21T03:40:23;100046.28;;;20.73;98.43
40612;BME280;26317;44.894;20.286;2022-08-21T03:42:57;100054.91;;;20.75;97.53
40612;BME280;26317;44.894;20.286;2022-08-21T03:45:28;100048.13;;;20.69;97.91
40612;BME280;26317;44.894;20.286;2022-08-21T03:48:06;100039.50;;;20.67;97.70
40612;BME280;26317;44.894;20.286;2022-08-21T03:50:43;100039.78;;;20.62;98.31
40612;BME280;26317;44.894;20.286;2022-08-21T03:53:18;100035.66;;;20.68;98.84
40612;BME280;26317;44.894;20.286;2022-08-21T03:55:52;100024.13;;;20.59;98.34
40612;BME280;26317;44.894;20.286;2022-08-21T03:58:41;100045.06;;;20.71;98.46
40612;BME280;26317;44.894;20.286;2022-08-21T04:01:14;100043.41;;;20.66;97.92
40612;BME280;26317;44.894;20.286;2022-08-21T04:03:44;100045.97;;;20.75;97.38
40612;BME280;26317;44.894;20.286;2022-08-21T04:06:25;100045.97;;;20.75;97.77
40612;BME280;26317;44.894;20.286;2022-08-21T04:08:56;100044.44;;;20.77;97.04
40612;BME280;26317;44.894;20.286;2022-08-21T04:11:28;100010.41;;;20.55;97.30
40612;BME280;26317;44.894;20.286;2022-08-21T04:14:01;100047.88;;;20.74;97.53
40612;BME280;26317;44.894;20.286;2022-08-21T04:16:35;100044.72;;;20.72;97.71
40612;BME280;26317;44.894;20.286;2022-08-21T04:19:13;100043.56;;;20.73;97.84
40612;BME280;26317;44.894;20.286;2022-08-21T04:21:44;100042.69;;;20.69;98.18
40612;BME280;26317;44.894;20.286;2022-08-21T04:24:17;100049.72;;;20.70;99.02
40612;BME280;26317;44.894;20.286;2022-08-21T04:26:57;100050.06;;;20.69;98.58
40612;BME280;26317;44.894;20.286;2022-08-21T04:29:30;100046.53;;;20.68;99.50
40612;BME280;26317;44.894;20.286;2022-08-21T04:32:02;100034.22;;;20.58;99.44
40612;BME280;26317;44.894;20.286;2022-08-21T04:34:40;100049.28;;;20.68;99.17
40612;BME280;26317;44.894;20.286;2022-08-21T04:37:22;100053.50;;;20.65;100.00
40612;BME280;26317;44.894;20.286;2022-08-21T04:39:59;100048.13;;;20.69;100.00
40612;BME280;26317;44.894;20.286;2022-08-21T04:42:30;100047.84;;;20.58;100.00
40612;BME280;26317;44.894;20.286;2022-08-21T04:45:19;100067.66;;;20.71;100.00
40612;BME280;26317;44.894;20.286;2022-08-21T04:47:54;100063.88;;;20.76;100.00
40612;BME280;26317;44.894;20.286;2022-08-21T04:50:31;100064.84;;;20.83;100.00
40612;BME280;26317;44.894;20.286;2022-08-21T04:53:11;100061.88;;;20.88;100.00
40612;BME280;26317;44.894;20.286;2022-08-21T04:55:46;100065.94;;;20.94;99.79
40612;BME280;26317;44.894;20.286;2022-08-21T04:58:20;100069.88;;;20.97;100.00
40612;BME280;26317;44.894;20.286;2022-08-21T05:01:04;100075.88;;;21.02;99.95
40612;BME280;26317;44.894;20.286;2022-08-21T05:03:40;100064.00;;;21.10;98.71
40612;BME280;26317;44.894;20.286;2022-08-21T05:06:19;100069.78;;;21.09;97.56
40612;BME280;26317;44.894;20.286;2022-08-21T05:08:54;100067.44;;;21.07;98.53
40612;BME280;26317;44.894;20.286;2022-08-21T05:11:27;100077.16;;;21.08;98.37
40612;BME280;26317;44.894;20.286;2022-08-21T05:14:07;100070.16;;;21.07;98.12
40612;BME280;26317;44.894;20.286;2022-08-21T05:16:43;100057.19;;;21.04;98.48
40612;BME280;26317;44.894;20.286;2022-08-21T05:19:18;100043.41;;;20.97;98.61
40612;BME280;26317;44.894;20.286;2022-08-21T05:21:50;100074.31;;;21.17;97.99
40612;BME280;26317;44.894;20.286;2022-08-21T05:24:25;100067.78;;;21.22;98.19
40612;BME280;26317;44.894;20.286;2022-08-21T05:27:00;100076.06;;;21.25;98.00
40612;BME280;26317;44.894;20.286;2022-08-21T05:29:36;100054.06;;;21.18;97.95
40612;BME280;26317;44.894;20.286;2022-08-21T05:32:11;100069.53;;;21.30;97.72
40612;BME280;26317;44.894;20.286;2022-08-21T05:34:46;100071.59;;;21.33;97.07
40612;BME280;26317;44.894;20.286;2022-08-21T05:37:20;100047.81;;;21.18;97.51
40612;BME280;26317;44.894;20.286;2022-08-21T05:39:56;100074.41;;;21.36;97.16
40612;BME280;26317;44.894;20.286;2022-08-21T05:42:29;100067.00;;;21.37;96.92
40612;BME280;26317;44.894;20.286;2022-08-21T05:44:58;100024.94;;;21.06;97.59
40612;BME280;26317;44.894;20.286;2022-08-21T05:47:33;100049.66;;;21.29;97.63
40612;BME280;26317;44.894;20.286;2022-08-21T05:50:06;100067.00;;;21.37;97.39
40612;BME280;26317;44.894;20.286;2022-08-21T05:52:36;100069.44;;;21.42;97.66
40612;BME280;26317;44.894;20.286;2022-08-21T05:55:14;100066.72;;;21.42;97.24
40612;BME280;26317;44.894;20.286;2022-08-21T05:57:50;100069.53;;;21.45;97.17
40612;BME280;26317;44.894;20.286;2022-08-21T06:00:25;100062.84;;;21.43;96.31
40612;BME280;26317;44.894;20.286;2022-08-21T06:03:10;100068.75;;;21.45;96.24
40612;BME280;26317;44.894;20.286;2022-08-21T06:05:46;100068.84;;;21.33;96.39
40612;BME280;26317;44.894;20.286;2022-08-21T06:08:18;100074.75;;;21.35;96.80
40612;BME280;26317;44.894;20.286;2022-08-21T06:10:49;100063.75;;;21.31;97.49
40612;BME280;26317;44.894;20.286;2022-08-21T06:13:19;100076.59;;;21.31;96.62
40612;BME280;26317;44.894;20.286;2022-08-21T06:16:06;100077.03;;;21.33;98.23
40612;BME280;26317;44.894;20.286;2022-08-21T06:18:45;100079.41;;;21.34;98.01
40612;BME280;26317;44.894;20.286;2022-08-21T06:21:27;100085.31;;;21.36;97.41
40612;BME280;26317;44.894;20.286;2022-08-21T06:24:00;100083.63;;;21.32;98.24
40612;BME280;26317;44.894;20.286;2022-08-21T06:26:32;100081.69;;;21.32;99.07
40612;BME280;26317;44.894;20.286;2022-08-21T06:29:03;100070.25;;;21.27;99.18
40612;BME280;26317;44.894;20.286;2022-08-21T06:31:39;100085.38;;;21.40;98.04
40612;BME280;26317;44.894;20.286;2022-08-21T06:34:10;100082.22;;;21.38;97.57
40612;BME280;26317;44.894;20.286;2022-08-21T06:36:39;100089.72;;;21.41;98.27
40612;BME280;26317;44.894;20.286;2022-08-21T06:39:10;100081.94;;;21.43;97.53
40612;BME280;26317;44.894;20.286;2022-08-21T06:41:39;100079.94;;;21.40;96.75
40612;BME280;26317;44.894;20.286;2022-08-21T06:44:16;100082.41;;;21.45;97.14
40612;BME280;26317;44.894;20.286;2022-08-21T06:46:55;100086.69;;;21.46;97.48
40612;BME280;26317;44.894;20.286;2022-08-21T06:49:31;100081.69;;;21.48;96.57
40612;BME280;26317;44.894;20.286;2022-08-21T06:52:03;100058.22;;;21.28;97.12
40612;BME280;26317;44.894;20.286;2022-08-21T06:54:33;100081.94;;;21.43;97.46
40612;BME280;26317;44.894;20.286;2022-08-21T06:57:13;100080.00;;;21.43;97.04
40612;BME280;26317;44.894;20.286;2022-08-21T06:59:44;100087.31;;;21.39;97.58
40612;BME280;26317;44.894;20.286;2022-08-21T07:02:18;100081.78;;;21.36;98.45
40612;BME280;26317;44.894;20.286;2022-08-21T07:05:05;100077.03;;;21.33;97.68
40612;BME280;26317;44.894;20.286;2022-08-21T07:07:38;100060.47;;;21.26;98.14
40612;BME280;26317;44.894;20.286;2022-08-21T07:10:15;100072.28;;;21.30;99.20
40612;BME280;26317;44.894;20.286;2022-08-21T07:12:46;100081.00;;;21.35;100.00
40612;BME280;26317;44.894;20.286;2022-08-21T07:15:22;100077.19;;;21.40;100.00
40612;BME280;26317;44.894;20.286;2022-08-21T07:17:55;100081.22;;;21.46;100.00
40612;BME280;26317;44.894;20.286;2022-08-21T07:20:33;100063.81;;;21.35;79.07
40612;BME280;26317;44.894;20.286;2022-08-21T07:23:09;100085.06;;;21.76;78.26
40612;BME280;26317;44.894;20.286;2022-08-21T07:25:44;100078.59;;;22.00;78.99
40612;BME280;26317;44.894;20.286;2022-08-21T07:28:17;100047.63;;;22.12;82.25
40612;BME280;26317;44.894;20.286;2022-08-21T07:30:52;100046.09;;;22.33;81.53
40612;BME280;26317;44.894;20.286;2022-08-21T07:33:30;100058.41;;;22.66;82.23
40612;BME280;26317;44.894;20.286;2022-08-21T07:36:16;100079.22;;;22.93;81.78
40612;BME280;26317;44.894;20.286;2022-08-21T07:38:53;100054.84;;;22.84;83.59
40612;BME280;26317;44.894;20.286;2022-08-21T07:41:28;100074.84;;;22.88;84.03
40612;BME280;26317;44.894;20.286;2022-08-21T07:44:06;100081.34;;;22.80;86.88
40612;BME280;26317;44.894;20.286;2022-08-21T07:46:42;100074.56;;;22.71;88.87
40612;BME280;26317;44.894;20.286;2022-08-21T07:49:12;100071.94;;;22.59;89.18
40612;BME280;26317;44.894;20.286;2022-08-21T07:51:44;100067.06;;;22.48;90.18
40612;BME280;26317;44.894;20.286;2022-08-21T07:54:16;100074.19;;;22.34;91.63
40612;BME280;26317;44.894;20.286;2022-08-21T07:56:45;100064.94;;;22.19;91.92
40612;BME280;26317;44.894;20.286;2022-08-21T07:59:24;100065.41;;;22.06;94.12
40612;BME280;26317;44.894;20.286;2022-08-21T08:02:09;100054.97;;;21.92;96.02
40612;BME280;26317;44.894;20.286;2022-08-21T08:04:41;100059.56;;;21.88;97.00
40612;BME280;26317;44.894;20.286;2022-08-21T08:07:12;100059.41;;;21.81;97.92
40612;BME280;26317;44.894;20.286;2022-08-21T08:09:45;100059.34;;;21.77;99.71
40612;BME280;26317;44.894;20.286;2022-08-21T08:12:25;100058.13;;;21.75;99.46
40612;BME280;26317;44.894;20.286;2022-08-21T08:15:02;100049.69;;;21.64;100.00
40612;BME280;26317;44.894;20.286;2022-08-21T08:17:35;100052.69;;;21.59;100.00
40612;BME280;26317;44.894;20.286;2022-08-21T08:20:07;100036.69;;;21.42;100.00
40612;BME280;26317;44.894;20.286;2022-08-21T08:22:53;100052.91;;;21.35;100.00
40612;BME280;26317;44.894;20.286;2022-08-21T08:25:25;100055.91;;;21.30;100.00
40612;BME280;26317;44.894;20.286;2022-08-21T08:27:55;100060.13;;;21.27;100.00
40612;BME280;26317;44.894;20.286;2022-08-21T08:30:23;100063.59;;;21.24;100.00
40612;BME280;26317;44.894;20.286;2022-08-21T08:32:56;100059.88;;;21.17;100.00
40612;BME280;26317;44.894;20.286;2022-08-21T08:35:54;100050.03;;;21.12;100.00
40612;BME280;26317;44.894;20.286;2022-08-21T08:38:32;100036.72;;;21.10;100.00
40612;BME280;26317;44.894;20.286;2022-08-21T08:41:07;100056.69;;;21.30;100.00
40612;BME280;26317;44.894;20.286;2022-08-21T08:43:55;100054.69;;;21.27;100.00
40612;BME280;26317;44.894;20.286;2022-08-21T08:46:38;100058.38;;;21.35;100.00
40612;BME280;26317;44.894;20.286;2022-08-21T08:49:19;100054.84;;;21.34;100.00
40612;BME280;26317;44.894;20.286;2022-08-21T08:51:54;100047.72;;;21.30;100.00
40612;BME280;26317;44.894;20.286;2022-08-21T08:54:42;100046.22;;;21.17;100.00
40612;BME280;26317;44.894;20.286;2022-08-21T08:57:20;100055.91;;;21.14;100.00
40612;BME280;26317;44.894;20.286;2022-08-21T09:00:11;100052.75;;;21.28;100.00
40612;BME280;26317;44.894;20.286;2022-08-21T09:02:43;100054.06;;;21.18;100.00
40612;BME280;26317;44.894;20.286;2022-08-21T09:05:22;100019.66;;;20.98;100.00
40612;BME280;26317;44.894;20.286;2022-08-21T09:08:16;100046.22;;;21.17;100.00
40612;BME280;26317;44.894;20.286;2022-08-21T09:11:10;100048.34;;;21.07;100.00
40612;BME280;26317;44.894;20.286;2022-08-21T09:13:54;100045.09;;;21.18;100.00
40612;BME280;26317;44.894;20.286;2022-08-21T09:16:38;100044.84;;;21.23;100.00
40612;BME280;26317;44.894;20.286;2022-08-21T09:19:32;100043.50;;;21.17;100.00
40612;BME280;26317;44.894;20.286;2022-08-21T09:22:17;100024.13;;;21.06;100.00
40612;BME280;26317;44.894;20.286;2022-08-21T09:24:56;100047.75;;;21.14;100.00
40612;BME280;26317;44.894;20.286;2022-08-21T09:27:39;100019.13;;;20.92;100.00
40612;BME280;26317;44.894;20.286;2022-08-21T09:30:16;100062.75;;;20.92;100.00
40612;BME280;26317;44.894;20.286;2022-08-21T09:32:52;100041.56;;;20.70;100.00
40612;BME280;26317;44.894;20.286;2022-08-21T09:35:26;100047.69;;;20.67;100.00
40612;BME280;26317;44.894;20.286;2022-08-21T09:37:58;100047.69;;;20.67;100.00
40612;BME280;26317;44.894;20.286;2022-08-21T09:40:36;100049.97;;;20.65;100.00
40612;BME280;26317;44.894;20.286;2022-08-21T09:43:19;100042.31;;;20.55;100.00
40612;BME280;26317;44.894;20.286;2022-08-21T09:46:05;100018.56;;;20.40;100.00
40612;BME280;26317;44.894;20.286;2022-08-21T09:48:48;100045.56;;;20.60;100.00
40612;BME280;26317;44.894;20.286;2022-08-21T09:51:24;100054.47;;;20.57;100.00
40612;BME280;26317;44.894;20.286;2022-08-21T09:53:59;100040.63;;;20.50;100.00
40612;BME280;26317;44.894;20.286;2022-08-21T09:56:52;100048.38;;;20.48;100.00
40612;BME280;26317;44.894;20.286;2022-08-21T09:59:51;100054.91;;;20.32;100.00
40612;BME280;26317;44.894;20.286;2022-08-21T10:02:30;100026.25;;;20.10;100.00
40612;BME280;26317;44.894;20.286;2022-08-21T10:05:17;100061.03;;;20.29;100.00
40612;BME280;26317;44.894;20.286;2022-08-21T10:07:59;100047.41;;;20.29;100.00
40612;BME280;26317;44.894;20.286;2022-08-21T10:10:37;100063.44;;;20.30;100.00
40612;BME280;26317;44.894;20.286;2022-08-21T10:13:17;100063.44;;;20.30;100.00
40612;BME280;26317;44.894;20.286;2022-08-21T10:16:12;100064.00;;;20.24;100.00
40612;BME280;26317;44.894;20.286;2022-08-21T10:19:01;100066.97;;;20.18;100.00
40612;BME280;26317;44.894;20.286;2022-08-21T10:21:40;100075.13;;;20.18;100.00
40612;BME280;26317;44.894;20.286;2022-08-21T10:24:25;100069.69;;;20.18;100.00
40612;BME280;26317;44.894;20.286;2022-08-21T10:27:16;100060.63;;;20.14;100.00
40612;BME280;26317;44.894;20.286;2022-08-21T10:29:59;100047.25;;;20.09;100.00
40612;BME280;26317;44.894;20.286;2022-08-21T10:32:59;100073.63;;;20.21;100.00
40612;BME280;26317;44.894;20.286;2022-08-21T10:35:41;100066.50;;;20.16;100.00
40612;BME280;26317;44.894;20.286;2022-08-21T10:38:59;100063.59;;;20.09;100.00
40612;BME280;26317;44.894;20.286;2022-08-21T10:41:45;100068.78;;;20.14;100.00
40612;BME280;26317;44.894;20.286;2022-08-21T10:44:25;100062.88;;;20.12;100.00
40612;BME280;26317;44.894;20.286;2022-08-21T10:47:09;100066.16;;;20.18;100.00
40612;BME280;26317;44.894;20.286;2022-08-21T10:50:02;100067.66;;;20.15;100.00
40612;BME280;26317;44.894;20.286;2022-08-21T10:53:00;100060.16;;;20.12;100.00
40612;BME280;26317;44.894;20.286;2022-08-21T10:55:52;100061.22;;;20.08;100.00
40612;BME280;26317;44.894;20.286;2022-08-21T10:58:31;100073.59;;;20.05;100.00
40612;BME280;26317;44.894;20.286;2022-08-21T11:01:09;100064.63;;;20.05;100.00
40612;BME280;26317;44.894;20.286;2022-08-21T11:03:48;100075.19;;;20.06;100.00
40612;BME280;26317;44.894;20.286;2022-08-21T11:06:37;100060.66;;;20.02;100.00
40612;BME280;26317;44.894;20.286;2022-08-21T11:09:14;100075.19;;;20.06;100.00
40612;BME280;26317;44.894;20.286;2022-08-21T11:11:55;100069.50;;;20.11;100.00
40612;BME280;26317;44.894;20.286;2022-08-21T11:14:34;100086.47;;;20.20;100.00
40612;BME280;26317;44.894;20.286;2022-08-21T11:17:09;100089.44;;;20.15;100.00
40612;BME280;26317;44.894;20.286;2022-08-21T11:19:50;100084.44;;;20.17;100.00
40612;BME280;26317;44.894;20.286;2022-08-21T11:22:40;100083.41;;;20.22;100.00
40612;BME280;26317;44.894;20.286;2022-08-21T11:25:29;100073.63;;;20.21;100.00
40612;BME280;26317;44.894;20.286;2022-08-21T11:28:25;100048.38;;;20.08;100.00
40612;BME280;26317;44.894;20.286;2022-08-21T11:31:10;100074.00;;;20.19;100.00
40612;BME280;26317;44.894;20.286;2022-08-21T11:34:07;100070.81;;;20.17;100.00
40612;BME280;26317;44.894;20.286;2022-08-21T11:36:46;100071.63;;;20.18;100.00
40612;BME280;26317;44.894;20.286;2022-08-21T11:39:26;100063.78;;;20.16;100.00
40612;BME280;26317;44.894;20.286;2022-08-21T11:42:12;100072.31;;;20.15;100.00
40612;BME280;26317;44.894;20.286;2022-08-21T11:44:52;100064.56;;;20.17;100.00
40612;BME280;26317;44.894;20.286;2022-08-21T11:47:35;100056.38;;;20.29;100.00
40612;BME280;26317;44.894;20.286;2022-08-21T11:50:14;100061.50;;;20.31;100.00
40612;BME280;26317;44.894;20.286;2022-08-21T11:52:51;100057.81;;;20.39;100.00
40612;BME280;26317;44.894;20.286;2022-08-21T11:55:45;100056.78;;;20.43;100.00
40612;BME280;26317;44.894;20.286;2022-08-21T11:58:21;100055.28;;;20.46;100.00
40612;BME280;26317;44.894;20.286;2022-08-21T12:01:03;100033.13;;;20.32;100.00
40612;BME280;26317;44.894;20.286;2022-08-21T12:03:39;100058.00;;;20.46;100.00
40612;BME280;26317;44.894;20.286;2022-08-21T12:06:14;100053.03;;;20.48;100.00
40612;BME280;26317;44.894;20.286;2022-08-21T12:08:59;100059.69;;;20.50;100.00
40612;BME280;26317;44.894;20.286;2022-08-21T12:11:46;100056.44;;;20.45;100.00
40612;BME280;26317;44.894;20.286;2022-08-21T12:14:20;100046.50;;;20.37;100.00
40612;BME280;26317;44.894;20.286;2022-08-21T12:16:52;100051.34;;;20.43;100.00
40612;BME280;26317;44.894;20.286;2022-08-21T12:19:37;100040.16;;;20.33;100.00
40612;BME280;26317;44.894;20.286;2022-08-21T12:22:13;100053.31;;;20.31;100.00
40612;BME280;26317;44.894;20.286;2022-08-21T12:24:51;100046.78;;;20.19;100.00
40612;BME280;26317;44.894;20.286;2022-08-21T12:27:46;100050.16;;;20.29;100.00
40612;BME280;26317;44.894;20.286;2022-08-21T12:30:34;99995.47;;;19.94;100.00
40612;BME280;26317;44.894;20.286;2022-08-21T12:33:20;100035.09;;;20.19;100.00
40612;BME280;26317;44.894;20.286;2022-08-21T12:36:05;100042.88;;;20.20;100.00
40612;BME280;26317;44.894;20.286;2022-08-21T12:38:46;100041.31;;;20.19;100.00
40612;BME280;26317;44.894;20.286;2022-08-21T12:41:27;100034.28;;;20.18;100.00
40612;BME280;26317;44.894;20.286;2022-08-21T12:44:07;100039.72;;;20.18;100.00
40612;BME280;26317;44.894;20.286;2022-08-21T12:46:44;100040.06;;;20.17;100.00
40612;BME280;26317;44.894;20.286;2022-08-21T12:49:22;100046.97;;;20.27;100.00
40612;BME280;26317;44.894;20.286;2022-08-21T12:52:02;100041.19;;;20.28;100.00
40612;BME280;26317;44.894;20.286;2022-08-21T12:54:43;100015.22;;;20.18;100.00
40612;BME280;26317;44.894;20.286;2022-08-21T12:57:21;100036.50;;;20.41;100.00
40612;BME280;26317;44.894;20.286;2022-08-21T13:00:10;100041.66;;;20.46;100.00
40612;BME280;26317;44.894;20.286;2022-08-21T13:02:53;100045.97;;;20.47;100.00
40612;BME280;26317;44.894;20.286;2022-08-21T13:05:30;100038.94;;;20.46;100.00
40612;BME280;26317;44.894;20.286;2022-08-21T13:08:05;100055.25;;;20.58;100.00
40612;BME280;26317;44.894;20.286;2022-08-21T13:10:40;100060.50;;;20.66;100.00
40612;BME280;26317;44.894;20.286;2022-08-21T13:13:15;100049.53;;;20.63;100.00
40612;BME280;26317;44.894;20.286;2022-08-21T13:16:00;100057.44;;;20.68;100.00
40612;BME280;26317;44.894;20.286;2022-08-21T13:18:39;100056.13;;;20.62;100.00
40612;BME280;26317;44.894;20.286;2022-08-21T13:21:33;100037.41;;;20.60;100.00
40612;BME280;26317;44.894;20.286;2022-08-21T13:24:24;100054.88;;;20.59;100.00
40612;BME280;26317;44.894;20.286;2022-08-21T13:27:00;100047.75;;;20.55;100.00
40612;BME280;26317;44.894;20.286;2022-08-21T13:29:34;100042.47;;;20.46;100.00